Time;durP1;ratioP1;P1;durP2;ratioP2;P2;SDS_P1;SDS_P2;PMS_P1;PMS_P2;Temp;Humidity;BMP_temperature;BMP_pressure;BME280_temperature;BME280_humidity;BME280_pressure;Samples;Min_cycle;Max_cycle;Signal;HPM_P1;HPM_P2
2023/12/02 00:04:23;;;;;;;1999.90;999.90;;;;;;;4.55;60.02;100959.91;10419579;28;20388;-70
2023/12/02 00:09:26;;;;;;;1999.90;999.90;;;;;;;4.99;57.72;100975.88;10401998;28;20103;-69
2023/12/02 00:14:29;;;;;;;1999.90;999.90;;;;;;;4.98;57.97;100968.13;10419234;28;20051;-70
2023/12/02 00:19:31;;;;;;;1999.90;999.90;;;;;;;5.16;57.64;100969.28;10419261;28;20046;-70
2023/12/02 00:24:34;;;;;;;1999.90;999.90;;;;;;;5.04;57.90;100957.53;10419220;28;20061;-70
2023/12/02 00:29:36;;;;;;;1999.90;999.90;;;;;;;4.24;59.84;100950.44;10401162;28;20050;-69
2023/12/02 00:34:39;;;;;;;1999.90;999.90;;;;;;;4.37;58.75;100945.75;10418314;28;20499;-69
2023/12/02 00:39:41;;;;;;;1999.90;999.90;;;;;;;4.58;58.74;100940.81;10400881;28;20068;-69
2023/12/02 00:44:43;;;;;;;1999.90;999.90;;;;;;;4.23;60.27;100945.28;10416897;28;20057;-70
2023/12/02 00:49:46;;;;;;;1999.90;999.90;;;;;;;4.52;59.17;100957.41;10417815;28;20136;-70
2023/12/02 00:54:49;;;;;;;1999.90;999.90;;;;;;;4.16;59.09;100952.41;10399964;28;20049;-70
2023/12/02 00:59:52;;;;;;;1999.90;999.90;;;;;;;4.74;59.02;100938.59;10416609;28;20061;-70
2023/12/02 01:04:54;;;;;;;1999.90;999.90;;;;;;;4.88;57.89;100944.22;10417231;28;20049;-70
2023/12/02 01:09:57;;;;;;;1999.90;999.90;;;;;;;4.90;58.44;100942.41;10417103;28;20443;-70
2023/12/02 01:14:59;;;;;;;1999.90;999.90;;;;;;;4.78;58.48;100948.00;10416627;28;20041;-70
2023/12/02 01:20:01;;;;;;;1999.90;999.90;;;;;;;5.18;57.62;100950.19;10416862;28;20128;-70
2023/12/02 01:25:04;;;;;;;1999.90;999.90;;;;;;;4.88;58.34;100949.41;10399122;28;20052;-70
2023/12/02 01:30:07;;;;;;;1999.90;999.90;;;;;;;4.58;58.85;100951.19;10416218;28;20522;-70
2023/12/02 01:35:09;;;;;;;1999.90;999.90;;;;;;;5.01;57.20;100953.31;10416130;28;20052;-70
2023/12/02 01:40:12;;;;;;;1999.90;999.90;;;;;;;4.98;58.36;100961.19;10415765;28;20057;-70
2023/12/02 01:45:15;;;;;;;1999.90;999.90;;;;;;;4.81;58.80;100966.91;10398525;28;20049;-70
2023/12/02 01:50:18;;;;;;;1999.90;999.90;;;;;;;4.23;58.93;100966.03;10398248;28;20049;-70
2023/12/02 01:55:20;;;;;;;1999.90;999.90;;;;;;;4.98;58.13;100965.53;10415335;28;20050;-69
2023/12/02 02:00:23;;;;;;;1999.90;999.90;;;;;;;5.02;57.94;100965.38;10397825;28;20065;-70
2023/12/02 02:05:25;;;;;;;1999.90;999.90;;;;;;;4.92;57.53;100974.34;10415230;28;20415;-70
2023/12/02 02:10:28;;;;;;;1999.90;999.90;;;;;;;4.92;58.32;100966.56;10415131;28;20094;-70
2023/12/02 02:15:31;;;;;;;1999.90;999.90;;;;;;;4.73;58.77;100978.41;10415010;28;20100;-70
2023/12/02 02:20:34;;;;;;;1999.90;999.90;;;;;;;5.05;57.60;100987.81;10397654;28;20137;-70
2023/12/02 02:25:36;;;;;;;1999.90;999.90;;;;;;;4.65;59.32;100968.25;10397833;28;20046;-70
2023/12/02 02:30:39;;;;;;;1999.90;999.90;;;;;;;5.08;57.96;100968.66;10414729;28;20133;-70
2023/12/02 02:35:41;;;;;;;1999.90;999.90;;;;;;;4.83;58.78;100967.69;10414698;28;20057;-69
2023/12/02 02:40:44;;;;;;;1999.90;999.90;;;;;;;4.74;57.47;100973.19;10414366;28;20136;-70
2023/12/02 02:45:46;;;;;;;1999.90;999.90;;;;;;;4.71;58.72;100973.28;10414695;28;20063;-70
2023/12/02 02:50:48;;;;;;;1999.90;999.90;;;;;;;4.53;58.54;100955.66;10422950;22;20059;-73
2023/12/02 02:55:51;;;;;;;1999.90;999.90;;;;;;;4.98;58.44;101000.13;10396496;28;20050;-74
2023/12/02 03:00:53;;;;;;;1999.90;999.90;;;;;;;4.51;58.46;100986.84;10396838;28;20128;-74
2023/12/02 03:05:56;;;;;;;1999.90;999.90;;;;;;;4.58;58.90;100995.28;10414061;28;20053;-73
2023/12/02 03:10:58;;;;;;;1999.90;999.90;;;;;;;4.41;59.35;101003.56;10396536;28;20448;-73
2023/12/02 03:16:01;;;;;;;1999.90;999.90;;;;;;;4.94;58.51;100988.16;10396519;28;20049;-73
2023/12/02 03:21:03;;;;;;;1999.90;999.90;;;;;;;4.75;58.34;100985.25;10414077;28;20060;-73
2023/12/02 03:26:06;;;;;;;1999.90;999.90;;;;;;;4.72;58.05;100992.28;10419354;28;20073;-73
2023/12/02 03:31:09;;;;;;;1999.90;999.90;;;;;;;4.28;59.05;100998.69;10420901;28;20050;-73
2023/12/02 03:36:11;;;;;;;1999.90;999.90;;;;;;;5.12;58.63;101007.47;10420835;28;20046;-73
2023/12/02 03:41:14;;;;;;;1999.90;999.90;;;;;;;5.29;56.44;101006.09;10420987;28;20125;-73
2023/12/02 03:46:16;;;;;;;1999.90;999.90;;;;;;;5.23;57.44;101007.16;10420506;28;20049;-73
2023/12/02 03:51:18;;;;;;;1999.90;999.90;;;;;;;4.82;57.86;101012.72;10419988;28;20063;-73
2023/12/02 03:56:21;;;;;;;1999.90;999.90;;;;;;;4.81;58.48;100998.03;10420285;28;20041;-73
2023/12/02 04:01:24;;;;;;;1999.90;999.90;;;;;;;4.66;58.58;101006.28;10419997;28;20128;-73
2023/12/02 04:06:26;;;;;;;1999.90;999.90;;;;;;;4.71;58.09;101000.94;10402084;28;20041;-73
2023/12/02 04:11:28;;;;;;;1999.90;999.90;;;;;;;4.21;59.48;101007.53;10402307;28;20053;-73
2023/12/02 04:16:31;;;;;;;1999.90;999.90;;;;;;;4.51;59.89;101017.94;10419108;28;20572;-72
2023/12/02 04:21:34;;;;;;;1999.90;999.90;;;;;;;4.53;59.15;101010.97;10401735;28;20053;-74
2023/12/02 04:26:37;;;;;;;1999.90;999.90;;;;;;;4.95;58.74;101023.56;10401400;28;20050;-73
2023/12/02 04:31:40;;;;;;;1999.90;999.90;;;;;;;4.78;59.01;101031.00;10401017;28;20140;-74
2023/12/02 04:36:43;;;;;;;1999.90;999.90;;;;;;;5.05;58.57;101037.09;10399612;28;20404;-74
2023/12/02 04:41:45;;;;;;;1999.90;999.90;;;;;;;5.33;58.09;101046.63;10400939;28;20052;-73
2023/12/02 04:46:48;;;;;;;1999.90;999.90;;;;;;;4.75;57.98;101046.66;10400666;28;20045;-73
2023/12/02 04:51:50;;;;;;;1999.90;999.90;;;;;;;4.94;58.72;101049.56;10400119;28;20059;-74
2023/12/02 04:56:52;;;;;;;1999.90;999.90;;;;;;;4.59;59.48;101046.22;10417809;28;20046;-73
2023/12/02 05:01:55;;;;;;;1999.90;999.90;;;;;;;4.75;58.31;101042.31;10417635;28;20055;-74
2023/12/02 05:06:57;;;;;;;1999.90;999.90;;;;;;;5.32;57.30;101044.94;10399720;28;20389;-74
2023/12/02 05:12:00;;;;;;;1999.90;999.90;;;;;;;4.89;58.56;101049.69;10417222;28;20057;-73
2023/12/02 05:17:02;;;;;;;1999.90;999.90;;;;;;;4.65;58.53;101053.84;10416733;28;20049;-74
2023/12/02 05:22:05;;;;;;;1999.90;999.90;;;;;;;4.70;60.39;101059.75;10416831;28;20051;-74
2023/12/02 05:27:08;;;;;;;1999.90;999.90;;;;;;;4.56;59.04;101062.75;10416510;28;20120;-74
2023/12/02 05:32:10;;;;;;;1999.90;999.90;;;;;;;4.10;60.25;101066.56;10417553;28;20109;-74
2023/12/02 05:37:13;;;;;;;1999.90;999.90;;;;;;;3.27;62.20;101059.09;10398704;28;20045;-74
2023/12/02 05:42:15;;;;;;;1999.90;999.90;;;;;;;4.04;60.98;101062.41;10415959;28;20124;-73
2023/12/02 05:47:18;;;;;;;1999.90;999.90;;;;;;;5.20;58.88;101060.00;10398092;28;20132;-74
2023/12/02 05:52:21;;;;;;;1999.90;999.90;;;;;;;4.26;59.97;101073.06;10415437;28;20119;-73
2023/12/02 05:57:23;;;;;;;1999.90;999.90;;;;;;;4.31;59.66;101077.28;10398027;28;20526;-74
2023/12/02 06:02:25;;;;;;;1999.90;999.90;;;;;;;5.11;58.39;101068.06;10415513;28;20128;-73
2023/12/02 06:07:28;;;;;;;1999.90;999.90;;;;;;;5.14;59.22;101072.31;10415169;28;20509;-73
2023/12/02 06:12:30;;;;;;;1999.90;999.90;;;;;;;5.17;58.13;101077.41;10397712;28;20079;-73
2023/12/02 06:17:33;;;;;;;1999.90;999.90;;;;;;;5.17;58.83;101085.19;10397464;28;20063;-73
2023/12/02 06:22:35;;;;;;;1999.90;999.90;;;;;;;5.46;58.86;101086.03;10381675;28;20077;-73
2023/12/02 06:27:38;;;;;;;1999.90;999.90;;;;;;;5.39;58.61;101093.19;10381009;28;20400;-73
2023/12/02 06:32:40;;;;;;;1999.90;999.90;;;;;;;4.79;58.10;101103.59;10397583;28;20057;-73
2023/12/02 06:37:43;;;;;;;1999.90;999.90;;;;;;;4.66;58.43;101102.25;10397342;28;20111;-73
2023/12/02 06:42:46;;;;;;;1999.90;999.90;;;;;;;4.87;59.23;101107.72;10397282;28;20494;-73
2023/12/02 06:47:48;;;;;;;1999.90;999.90;;;;;;;5.19;58.24;101111.97;10397142;28;20133;-73
2023/12/02 06:52:51;;;;;;;1999.90;999.90;;;;;;;4.58;59.56;101128.38;10396561;28;20050;-73
2023/12/02 06:57:53;;;;;;;1999.90;999.90;;;;;;;4.87;58.34;101129.31;10415567;28;20058;-73
2023/12/02 07:02:56;;;;;;;1999.90;999.90;;;;;;;3.97;60.42;101136.00;10404700;28;20041;-73
2023/12/02 07:07:58;;;;;;;1999.90;999.90;;;;;;;4.19;59.72;101146.69;10404445;28;20065;-73
2023/12/02 07:13:00;;;;;;;1999.90;999.90;;;;;;;5.08;58.66;101151.22;10404270;28;20056;-73
2023/12/02 07:18:03;;;;;;;1999.90;999.90;;;;;;;4.71;59.51;101170.41;10421721;28;20053;-73
2023/12/02 07:23:05;;;;;;;1999.90;999.90;;;;;;;5.55;59.33;101174.91;10421489;28;20053;-73
2023/12/02 07:28:08;;;;;;;1999.90;999.90;;;;;;;4.92;59.72;101181.94;10403635;28;20401;-73
2023/12/02 07:33:10;;;;;;;1999.90;999.90;;;;;;;4.87;59.37;101183.81;10421071;28;20132;-73
2023/12/02 07:38:12;;;;;;;1999.90;999.90;;;;;;;5.62;58.91;101177.34;10421203;28;20053;-73
2023/12/02 07:43:15;;;;;;;1999.90;999.90;;;;;;;5.53;58.25;101181.03;10420484;28;20041;-73
2023/12/02 07:48:17;;;;;;;1999.90;999.90;;;;;;;5.56;57.78;101186.16;10420552;28;20049;-73
2023/12/02 07:53:20;;;;;;;1999.90;999.90;;;;;;;5.64;58.28;101184.19;10420094;28;20140;-74
2023/12/02 07:58:22;;;;;;;1999.90;999.90;;;;;;;5.37;57.75;101186.69;10402881;28;20132;-74
2023/12/02 08:03:25;;;;;;;1999.90;999.90;;;;;;;5.56;58.82;101199.13;10420327;28;20092;-72
2023/12/02 08:08:27;;;;;;;1999.90;999.90;;;;;;;5.56;57.97;101205.22;10419721;28;20049;-72
2023/12/02 08:13:30;;;;;;;1999.90;999.90;;;;;;;4.94;59.31;101216.50;10419550;28;20052;-72
2023/12/02 08:18:32;;;;;;;1999.90;999.90;;;;;;;4.72;58.48;101216.19;10419621;28;20053;-72
2023/12/02 08:23:34;;;;;;;1999.90;999.90;;;;;;;5.00;60.26;101226.69;10419648;28;20048;-72
2023/12/02 08:28:37;;;;;;;1999.90;999.90;;;;;;;5.10;58.78;101229.03;10418832;28;20053;-73
2023/12/02 08:33:39;;;;;;;1999.90;999.90;;;;;;;4.71;60.09;101227.47;10418493;28;20103;-72
2023/12/02 08:38:42;;;;;;;1999.90;999.90;;;;;;;5.00;59.90;101225.84;10419065;28;20049;-72
2023/12/02 08:43:45;;;;;;;1999.90;999.90;;;;;;;5.50;58.41;101230.50;10418124;28;20082;-73
2023/12/02 08:48:47;;;;;;;1999.90;999.90;;;;;;;5.57;59.31;101243.25;10400896;28;20132;-72
2023/12/02 08:53:54;;;;;;;1999.90;999.90;;;;;;;5.41;58.48;101249.78;10418019;28;20049;-73
2023/12/02 08:58:59;;;;;;;1999.90;999.90;;;;;;;5.27;59.52;101247.59;10400334;28;20045;-72
2023/12/02 09:04:01;;;;;;;1999.90;999.90;;;;;;;5.04;58.71;101248.22;10417163;28;20153;-73
2023/12/02 09:09:04;;;;;;;1999.90;999.90;;;;;;;6.52;57.68;101251.59;10417431;28;20132;-73
2023/12/02 09:14:06;;;;;;;1999.90;999.90;;;;;;;9.48;54.17;101261.81;10399547;28;20620;-73
2023/12/02 09:19:46;;;;;;;1999.90;999.90;;;;;;;9.59;51.46;101248.25;10399427;28;20132;-73
2023/12/02 09:24:48;;;;;;;1999.90;999.90;;;;;;;8.06;53.65;101251.25;10416347;28;20056;-73
2023/12/02 09:29:51;;;;;;;1999.90;999.90;;;;;;;9.13;52.44;101259.91;10416419;28;20128;-74
2023/12/02 09:34:59;;;;;;;1999.90;999.90;;;;;;;8.48;54.61;101258.28;10416138;28;20144;-73
2023/12/02 09:40:38;;;;;;;1999.90;999.90;;;;;;;7.96;55.51;101269.00;10416143;28;20400;-73
2023/12/02 09:46:15;;;;;;;1999.90;999.90;;;;;;;7.52;54.44;101275.91;10396965;28;20049;-73
2023/12/02 09:51:36;;;;;;;1999.90;999.90;;;;;;;7.13;56.63;101290.31;10415581;28;20076;-74
2023/12/02 09:56:44;;;;;;;1999.90;999.90;;;;;;;7.02;56.17;101279.44;10415497;28;20045;-74
2023/12/02 10:02:04;;;;;;;1999.90;999.90;;;;;;;6.91;56.20;101295.44;10397930;28;20484;-74
2023/12/02 10:07:41;;;;;;;1999.90;999.90;;;;;;;6.75;55.49;101286.44;10397921;28;20045;-73
2023/12/02 10:12:50;;;;;;;1999.90;999.90;;;;;;;6.23;55.62;101300.22;10399786;28;20069;-73
2023/12/02 10:18:09;;;;;;;1999.90;999.90;;;;;;;6.11;57.06;101280.66;10414878;28;20052;-74
2023/12/02 10:23:25;;;;;;;1999.90;999.90;;;;;;;6.45;57.23;101273.53;10415155;28;20053;-74
2023/12/02 10:28:33;;;;;;;1999.90;999.90;;;;;;;6.50;55.29;101269.03;10415103;28;20049;-74
2023/12/02 10:33:41;;;;;;;1999.90;999.90;;;;;;;6.94;56.72;101274.47;10418698;28;20459;-74
2023/12/02 10:39:02;;;;;;;1999.90;999.90;;;;;;;5.70;59.03;101280.13;10423008;28;20480;-74
2023/12/02 10:44:17;;;;;;;1999.90;999.90;;;;;;;5.62;58.41;101283.84;10407086;28;20488;-74
2023/12/02 10:49:19;;;;;;;1999.90;999.90;;;;;;;6.75;55.57;101276.03;10405368;28;20128;-74
2023/12/02 10:54:25;;;;;;;1999.90;999.90;;;;;;;6.55;56.43;101267.13;10363976;28;20061;-74
2023/12/02 10:59:30;;;;;;;1999.90;999.90;;;;;;;6.25;56.55;101255.97;10381325;28;20129;-74
2023/12/02 11:04:37;;;;;;;1999.90;999.90;;;;;;;6.90;57.11;101254.66;10379941;28;20060;-74
2023/12/02 11:09:43;;;;;;;1999.90;999.90;;;;;;;6.83;56.08;101264.44;10380889;28;20116;-74
2023/12/02 11:14:50;;;;;;;1999.90;999.90;;;;;;;6.22;56.10;101259.53;10379554;28;20129;-74
2023/12/02 11:20:12;;;;;;;1999.90;999.90;;;;;;;6.55;56.18;101264.50;10379175;28;20049;-74
2023/12/02 11:25:24;;;;;;;1999.90;999.90;;;;;;;6.01;57.00;101270.59;10379329;28;20042;-74
2023/12/02 11:30:57;;;;;;;1999.90;999.90;;;;;;;5.94;58.05;101273.34;10380123;28;20060;-74
2023/12/02 11:36:29;;;;;;;1999.90;999.90;;;;;;;6.96;56.95;101272.69;10379746;28;20543;-74
2023/12/02 11:41:58;;;;;;;1999.90;999.90;;;;;;;7.73;56.24;101259.50;10369592;28;20445;-75
2023/12/02 11:47:19;;;;;;;1999.90;999.90;;;;;;;7.88;55.04;101262.41;10377697;28;20056;-74
2023/12/02 11:52:46;;;;;;;1999.90;999.90;;;;;;;7.99;56.23;101265.44;10392803;28;20053;-74
2023/12/02 11:58:14;;;;;;;1999.90;999.90;;;;;;;6.46;56.49;101270.03;10386157;28;20049;-75
2023/12/02 12:03:23;;;;;;;1999.90;999.90;;;;;;;7.72;55.20;101263.00;10384564;28;20485;-75
2023/12/02 12:08:39;;;;;;;1999.90;999.90;;;;;;;7.96;56.06;101284.66;10402076;28;20071;-75
2023/12/02 12:13:43;;;;;;;1999.90;999.90;;;;;;;6.84;56.95;101292.19;10402254;28;20077;-74
2023/12/02 12:18:45;;;;;;;1999.90;999.90;;;;;;;6.88;56.46;101285.13;10401648;28;20052;-74
2023/12/02 12:23:47;;;;;;;1999.90;999.90;;;;;;;7.66;56.64;101297.09;10419411;28;20080;-74
2023/12/02 12:28:50;;;;;;;1999.90;999.90;;;;;;;6.64;57.11;101295.44;10401420;28;20051;-74
2023/12/02 12:33:52;;;;;;;1999.90;999.90;;;;;;;7.34;58.20;101296.50;10418817;28;20133;-74
2023/12/02 12:38:59;;;;;;;1999.90;999.90;;;;;;;6.72;56.91;101304.75;10418352;28;20054;-74
2023/12/02 12:44:04;;;;;;;1999.90;999.90;;;;;;;7.97;55.82;101309.00;10401533;28;20103;-74
2023/12/02 12:49:07;;;;;;;1999.90;999.90;;;;;;;7.22;57.82;101313.44;10400714;28;20049;-74
2023/12/02 12:54:12;;;;;;;1999.90;999.90;;;;;;;7.32;57.71;101313.97;10417767;28;20133;-74
2023/12/02 12:59:18;;;;;;;1999.90;999.90;;;;;;;7.51;57.14;101315.91;10399275;28;20107;-74
2023/12/02 13:04:28;;;;;;;1999.90;999.90;;;;;;;8.07;56.82;101319.88;10383650;28;20478;-74
2023/12/02 13:09:32;;;;;;;1999.90;999.90;;;;;;;7.82;56.93;101320.84;10400052;28;20060;-74
2023/12/02 13:14:44;;;;;;;1999.90;999.90;;;;;;;7.56;57.47;101329.59;10416802;28;20432;-74
2023/12/02 13:19:57;;;;;;;1999.90;999.90;;;;;;;6.66;58.94;101327.47;10492614;28;20417;-74
2023/12/02 13:25:16;;;;;;;1999.90;999.90;;;;;;;7.99;57.59;101326.25;10392191;22;20513;-69
2023/12/02 13:30:19;;;;;;;1999.90;999.90;;;;;;;7.72;57.71;101325.53;10367751;28;20450;-69
2023/12/02 13:35:30;;;;;;;1999.90;999.90;;;;;;;7.22;58.36;101329.06;10351224;28;20046;-69
2023/12/02 13:40:53;;;;;;;1999.90;999.90;;;;;;;8.04;58.54;101327.84;10367458;28;20052;-69
2023/12/02 13:45:58;;;;;;;1999.90;999.90;;;;;;;8.10;57.09;101330.22;10368320;28;20056;-69
2023/12/02 13:51:30;;;;;;;1999.90;999.90;;;;;;;7.65;58.14;101333.63;10368475;28;20046;-69
2023/12/02 13:57:03;;;;;;;1999.90;999.90;;;;;;;8.37;57.20;101334.38;10367829;28;20046;-69
2023/12/02 14:02:11;;;;;;;1999.90;999.90;;;;;;;8.20;56.51;101339.38;10366530;28;20062;-69
2023/12/02 14:07:17;;;;;;;1999.90;999.90;;;;;;;8.06;56.97;101342.53;10366518;28;20129;-69
2023/12/02 14:12:37;;;;;;;1999.90;999.90;;;;;;;8.40;56.02;101346.44;10367229;28;20408;-69
2023/12/02 14:17:48;;;;;;;1999.90;999.90;;;;;;;8.27;56.22;101345.19;10366854;28;20042;-69
2023/12/02 14:23:07;;;;;;;1999.90;999.90;;;;;;;7.70;57.00;101357.78;10366776;28;20089;-69
2023/12/02 14:28:24;;;;;;;1999.90;999.90;;;;;;;8.59;56.03;101354.44;10355501;28;20050;-69
2023/12/02 14:33:49;;;;;;;1999.90;999.90;;;;;;;8.36;56.15;101363.13;10338198;28;20421;-69
2023/12/02 14:39:01;;;;;;;1999.90;999.90;;;;;;;7.40;57.71;101357.97;10338013;28;20054;-69
2023/12/02 14:44:12;;;;;;;1999.90;999.90;;;;;;;7.90;57.59;101376.16;10339035;28;20059;-69
2023/12/02 14:49:15;;;;;;;1999.90;999.90;;;;;;;7.79;56.86;101393.94;10339098;28;20054;-69
2023/12/02 14:54:21;;;;;;;1999.90;999.90;;;;;;;7.38;57.44;101393.63;10337507;28;20050;-69
2023/12/02 14:59:23;;;;;;;1999.90;999.90;;;;;;;7.21;59.19;101402.03;10321844;28;20042;-69
2023/12/02 15:04:26;;;;;;;1999.90;999.90;;;;;;;7.77;56.81;101401.81;10337264;28;20081;-69
2023/12/02 15:09:29;;;;;;;1999.90;999.90;;;;;;;7.67;58.47;101413.47;10336099;28;20478;-69
2023/12/02 15:14:34;;;;;;;1999.90;999.90;;;;;;;7.58;58.06;101422.47;10337745;28;20496;-69
2023/12/02 15:19:38;;;;;;;1999.90;999.90;;;;;;;7.83;57.38;101429.41;10336176;28;20046;-69
2023/12/02 15:24:40;;;;;;;1999.90;999.90;;;;;;;8.08;56.74;101437.19;10335955;28;20133;-69
2023/12/02 15:29:43;;;;;;;1999.90;999.90;;;;;;;8.27;56.71;101445.22;10336983;28;20074;-69
2023/12/02 15:34:45;;;;;;;1999.90;999.90;;;;;;;8.12;57.39;101450.97;10336245;28;20133;-67
2023/12/02 15:39:48;;;;;;;1999.90;999.90;;;;;;;7.71;57.69;101455.91;10319479;28;20046;-69
2023/12/02 15:44:50;;;;;;;1999.90;999.90;;;;;;;7.71;58.69;101469.78;10336617;28;20408;-66
2023/12/02 15:49:52;;;;;;;1999.90;999.90;;;;;;;7.29;59.30;101474.72;10336594;28;20125;-69
2023/12/02 15:54:55;;;;;;;1999.90;999.90;;;;;;;7.24;59.25;101477.47;10336384;28;20046;-69
2023/12/02 15:59:58;;;;;;;1999.90;999.90;;;;;;;7.50;59.67;101476.59;10334823;28;20508;-68
2023/12/02 16:05:00;;;;;;;1999.90;999.90;;;;;;;6.91;60.41;101485.47;10336019;28;20075;-69
2023/12/02 16:10:03;;;;;;;1999.90;999.90;;;;;;;6.89;61.80;101502.84;10334436;28;20401;-69
2023/12/02 16:15:06;;;;;;;1999.90;999.90;;;;;;;6.91;61.62;101487.19;10334570;28;20133;-69
2023/12/02 16:20:12;;;;;;;1999.90;999.90;;;;;;;7.07;61.24;101496.22;10318173;28;20050;-69
2023/12/02 16:25:15;;;;;;;1999.90;999.90;;;;;;;6.89;61.27;101492.44;10333816;28;20078;-69
2023/12/02 16:30:19;;;;;;;1999.90;999.90;;;;;;;6.04;63.25;101487.09;10334933;28;20140;-68
2023/12/02 16:35:22;;;;;;;1999.90;999.90;;;;;;;5.69;63.00;101503.59;10333541;28;20058;-69
2023/12/02 16:40:25;;;;;;;1999.90;999.90;;;;;;;6.74;60.39;101516.34;10317553;28;20133;-69
2023/12/02 16:45:27;;;;;;;1999.90;999.90;;;;;;;6.92;60.57;101521.00;10333282;28;20133;-69
2023/12/02 16:50:31;;;;;;;1999.90;999.90;;;;;;;5.92;63.45;101532.44;10317228;28;20054;-69
2023/12/02 16:55:35;;;;;;;1999.90;999.90;;;;;;;7.00;60.80;101537.22;10334100;28;20050;-69
2023/12/02 17:00:40;;;;;;;1999.90;999.90;;;;;;;6.01;63.45;101538.34;10334242;28;20046;-69
2023/12/02 17:06:06;;;;;;;1999.90;999.90;;;;;;;6.51;63.03;101544.72;10332793;28;20394;-69
2023/12/02 17:11:10;;;;;;;1999.90;999.90;;;;;;;6.16;62.07;101537.06;10335707;28;20128;-69
2023/12/02 17:16:31;;;;;;;1999.90;999.90;;;;;;;5.65;65.03;101548.72;10333540;28;20051;-68
2023/12/02 17:21:43;;;;;;;1999.90;999.90;;;;;;;6.04;63.34;101549.50;10333659;28;20062;-69
2023/12/02 17:26:46;;;;;;;1999.90;999.90;;;;;;;6.21;63.51;101554.25;10332575;28;20050;-69
2023/12/02 17:31:48;;;;;;;1999.90;999.90;;;;;;;6.29;63.71;101561.84;10332505;28;20050;-69
2023/12/02 17:36:52;;;;;;;1999.90;999.90;;;;;;;5.98;64.52;101565.25;10333538;28;20447;-69
2023/12/02 17:41:54;;;;;;;1999.90;999.90;;;;;;;6.16;62.52;101565.69;10315935;28;20047;-69
2023/12/02 17:46:57;;;;;;;1999.90;999.90;;;;;;;6.42;63.88;101573.63;10333314;28;20043;-68
2023/12/02 17:52:01;;;;;;;1999.90;999.90;;;;;;;5.45;65.41;101576.06;10333040;28;20062;-69
2023/12/02 17:57:05;;;;;;;1999.90;999.90;;;;;;;6.62;63.69;101580.88;10333002;28;20133;-68
2023/12/02 18:02:08;;;;;;;1999.90;999.90;;;;;;;5.17;65.85;101587.06;10333497;28;20053;-68
2023/12/02 18:07:10;;;;;;;1999.90;999.90;;;;;;;5.92;65.70;101574.03;10339486;28;20056;-68
2023/12/02 18:12:14;;;;;;;1999.90;999.90;;;;;;;6.08;65.39;101579.72;10340385;28;20054;-68
2023/12/02 18:17:17;;;;;;;1999.90;999.90;;;;;;;6.81;62.95;101578.59;10338830;28;20061;-68
2023/12/02 18:22:19;;;;;;;1999.90;999.90;;;;;;;5.99;64.96;101579.97;10338720;28;20104;-68
2023/12/02 18:27:22;;;;;;;1999.90;999.90;;;;;;;5.84;67.03;101567.31;10339586;28;20413;-68
2023/12/02 18:32:25;;;;;;;1999.90;999.90;;;;;;;6.04;66.03;101578.09;10339678;28;20054;-68
2023/12/02 18:37:28;;;;;;;1999.90;999.90;;;;;;;6.24;63.89;101580.16;10339407;28;20074;-68
2023/12/02 18:42:30;;;;;;;1999.90;999.90;;;;;;;5.82;65.97;101589.91;10339077;28;20582;-68
2023/12/02 18:47:32;;;;;;;1999.90;999.90;;;;;;;6.08;65.03;101587.50;10321746;28;20422;-68
2023/12/02 18:52:35;;;;;;;1999.90;999.90;;;;;;;6.03;65.92;101581.56;10337552;28;20061;-72
2023/12/02 18:57:37;;;;;;;1999.90;999.90;;;;;;;5.82;64.77;101582.13;10338746;28;20129;-72
2023/12/02 19:02:40;;;;;;;1999.90;999.90;;;;;;;5.61;66.13;101599.91;10338362;28;20057;-72
2023/12/02 19:07:42;;;;;;;1999.90;999.90;;;;;;;5.91;63.45;101593.09;10337066;28;20224;-72
2023/12/02 19:12:45;;;;;;;1999.90;999.90;;;;;;;6.21;64.70;101597.59;10338081;28;20058;-72
2023/12/02 19:17:47;;;;;;;1999.90;999.90;;;;;;;5.49;66.99;101610.59;10337645;28;20061;-72
2023/12/02 19:22:50;;;;;;;1999.90;999.90;;;;;;;6.29;64.94;101609.50;10320417;28;20065;-73
2023/12/02 19:27:52;;;;;;;1999.90;999.90;;;;;;;5.79;65.56;101610.78;10337407;28;20046;-72
2023/12/02 19:32:55;;;;;;;1999.90;999.90;;;;;;;6.19;64.66;101602.00;10336280;28;20054;-72
2023/12/02 19:38:01;;;;;;;1999.90;999.90;;;;;;;5.97;64.94;101609.47;10335839;28;20073;-72
2023/12/02 19:43:04;;;;;;;1999.90;999.90;;;;;;;5.55;66.59;101615.66;10337108;28;20390;-72
2023/12/02 19:48:06;;;;;;;1999.90;999.90;;;;;;;5.89;65.32;101605.28;10336706;28;20125;-72
2023/12/02 19:53:09;;;;;;;1999.90;999.90;;;;;;;5.67;65.25;101610.16;10335278;28;20078;-72
2023/12/02 19:58:12;;;;;;;1999.90;999.90;;;;;;;6.15;64.41;101616.81;10335147;28;20133;-73
2023/12/02 20:03:15;;;;;;;1999.90;999.90;;;;;;;5.70;65.56;101630.88;10336007;28;20165;-73
2023/12/02 20:08:17;;;;;;;1999.90;999.90;;;;;;;6.12;64.28;101635.94;10335754;28;20105;-73
2023/12/02 20:13:20;;;;;;;1999.90;999.90;;;;;;;6.11;65.09;101638.59;10335601;28;20504;-73
2023/12/02 20:18:23;;;;;;;1999.90;999.90;;;;;;;6.42;63.55;101636.06;10335625;28;20077;-72
2023/12/02 20:23:27;;;;;;;1999.90;999.90;;;;;;;5.39;65.24;101641.97;10335237;28;20058;-72
2023/12/02 20:28:29;;;;;;;1999.90;999.90;;;;;;;5.47;66.82;101633.16;10333540;28;20046;-72
2023/12/02 20:33:31;;;;;;;1999.90;999.90;;;;;;;5.86;65.15;101641.75;10317980;28;20052;-72
2023/12/02 20:38:34;;;;;;;1999.90;999.90;;;;;;;5.74;66.19;101648.09;10334677;28;20050;-72
2023/12/02 20:43:37;;;;;;;1999.90;999.90;;;;;;;5.67;66.33;101641.34;10333739;28;20054;-72
2023/12/02 20:48:41;;;;;;;1999.90;999.90;;;;;;;5.07;67.33;101658.22;10333311;28;20070;-73
2023/12/02 20:53:44;;;;;;;1999.90;999.90;;;;;;;5.71;66.61;101655.13;10333106;28;20555;-72
2023/12/02 20:58:47;;;;;;;1999.90;999.90;;;;;;;5.46;66.91;101660.00;10316909;28;20076;-72
2023/12/02 21:03:49;;;;;;;1999.90;999.90;;;;;;;5.75;67.40;101668.00;10334038;28;20053;-73
2023/12/02 21:08:52;;;;;;;1999.90;999.90;;;;;;;5.66;67.35;101662.16;10334176;28;20046;-72
2023/12/02 21:13:54;;;;;;;1999.90;999.90;;;;;;;5.74;66.41;101655.91;10316620;28;20405;-72
2023/12/02 21:18:56;;;;;;;1999.90;999.90;;;;;;;5.81;65.19;101654.00;10333725;28;20130;-73
2023/12/02 21:23:59;;;;;;;1999.90;999.90;;;;;;;5.36;67.42;101641.19;10333530;28;20066;-72
2023/12/02 21:29:02;;;;;;;1999.90;999.90;;;;;;;5.68;66.99;101640.47;10333440;28;20105;-72
2023/12/02 21:34:10;;;;;;;1999.90;999.90;;;;;;;5.74;67.05;101647.25;10332332;28;20046;-72
2023/12/02 21:39:32;;;;;;;1999.90;999.90;;;;;;;6.13;66.61;101657.59;10337313;28;20134;-72
2023/12/02 21:44:34;;;;;;;1999.90;999.90;;;;;;;5.36;67.82;101664.53;10341686;28;20553;-72
2023/12/02 21:49:37;;;;;;;1999.90;999.90;;;;;;;5.68;66.84;101669.03;10341149;28;20121;-72
2023/12/02 21:54:40;;;;;;;1999.90;999.90;;;;;;;5.96;66.73;101665.81;10341236;28;20057;-72
2023/12/02 21:59:43;;;;;;;1999.90;999.90;;;;;;;6.16;66.58;101672.28;10340569;28;20109;-73
2023/12/02 22:04:45;;;;;;;1999.90;999.90;;;;;;;5.57;67.12;101677.06;10339411;28;20157;-72
2023/12/02 22:09:48;;;;;;;1999.90;999.90;;;;;;;6.00;67.59;101698.66;10340459;28;20046;-72
2023/12/02 22:14:50;;;;;;;1999.90;999.90;;;;;;;5.38;69.27;101686.16;10340243;28;20050;-72
2023/12/02 22:19:54;;;;;;;1999.90;999.90;;;;;;;5.46;67.86;101702.41;10338793;28;20076;-73
2023/12/02 22:24:56;;;;;;;1999.90;999.90;;;;;;;5.25;67.95;101708.94;10339750;28;20054;-73